Time,TemperatureF,DewpointF,PressureIn,WindDirection,WindDirectionDegrees,WindSpeedMPH,WindSpeedGustMPH,Humidity,HourlyPrecipIn,Conditions,Clouds,dailyrainin,SoftwareType,DateUTC
2013-01-04 00:02:00,39.3,32.4,30.34,North,0,0.0,0.0,77,0.00,,,0.00,WUHU216HW,2013-01-04 06:02:00,
2013-01-04 00:07:00,39.3,32.4,30.34,North,0,0.0,0.0,77,0.00,,,0.00,WUHU216HW,2013-01-04 06:07:00,
2013-01-04 00:12:00,39.3,32.4,30.33,North,0,0.0,0.0,77,0.00,,,0.00,WUHU216HW,2013-01-04 06:12:00,
2013-01-04 00:17:00,39.2,32.5,30.33,North,0,0.0,0.0,77,0.00,,,0.00,WUHU216HW,2013-01-04 06:17:00,
2013-01-04 00:22:00,39.0,32.0,30.32,North,0,0.0,0.0,76,0.00,,,0.00,WUHU216HW,2013-01-04 06:22:00,
2013-01-04 00:27:00,39.2,32.2,30.33,North,0,0.0,0.0,76,0.00,,,0.00,WUHU216HW,2013-01-04 06:27:00,
2013-01-04 00:32:00,39.2,32.2,30.33,North,0,0.0,0.0,76,0.00,,,0.00,WUHU216HW,2013-01-04 06:32:00,
2013-01-04 00:42:00,39.0,32.0,30.34,North,0,0.0,0.0,76,0.00,,,0.00,WUHU216HW,2013-01-04 06:42:00,
2013-01-04 00:47:00,39.0,32.0,30.34,North,0,0.0,0.0,76,0.00,,,0.00,WUHU216HW,2013-01-04 06:47:00,
2013-01-04 00:52:00,39.0,32.0,30.34,North,0,0.0,0.0,76,0.00,,,0.00,WUHU216HW,2013-01-04 06:52:00,
2013-01-04 00:57:00,39.2,32.2,30.34,North,0,0.0,0.0,76,0.00,,,0.00,WUHU216HW,2013-01-04 06:57:00,
2013-01-04 01:02:00,39.2,32.2,30.34,North,0,0.0,0.0,76,0.00,,,0.00,WUHU216HW,2013-01-04 07:02:00,
2013-01-04 01:44:00,38.1,32.8,30.36,North,0,0.0,0.0,82,0.00,,,0.00,WUHU216HW,2013-01-04 07:44:00,
2013-01-04 01:56:00,37.9,32.9,30.37,North,0,0.0,0.0,82,0.00,,,0.00,WUHU216HW,2013-01-04 07:56:00,
2013-01-04 02:01:00,37.9,32.9,30.37,North,0,0.0,0.0,82,0.00,,,0.00,WUHU216HW,2013-01-04 08:01:00,
2013-01-04 02:58:00,36.1,31.7,30.37,North,0,0.0,0.0,86,0.02,,,0.02,WUHU216HW,2013-01-04 08:58:00,
2013-01-04 03:41:00,35.2,31.9,30.40,North,0,0.0,0.0,88,0.00,,,0.02,WUHU216HW,2013-01-04 09:41:00,
2013-01-04 04:07:00,35.2,31.9,30.40,North,0,0.0,0.0,88,0.00,,,0.02,WUHU216HW,2013-01-04 10:07:00,
2013-01-04 05:06:00,33.9,30.9,30.40,North,0,0.0,0.0,89,0.02,,,0.04,WUHU216HW,2013-01-04 11:06:00,
2013-01-04 05:11:00,33.9,30.9,30.40,North,0,0.0,0.0,89,0.02,,,0.04,WUHU216HW,2013-01-04 11:11:00,
2013-01-04 05:16:00,33.9,30.9,30.41,North,0,0.0,0.0,89,0.02,,,0.04,WUHU216HW,2013-01-04 11:16:00,
2013-01-04 05:21:00,33.9,30.9,30.41,North,0,0.0,0.0,89,0.02,,,0.04,WUHU216HW,2013-01-04 11:21:00,
2013-01-04 06:04:00,33.6,30.6,30.41,North,0,0.0,0.0,90,0.00,,,0.04,WUHU216HW,2013-01-04 12:04:00,
2013-01-04 06:38:00,33.4,30.7,30.40,North,0,0.0,0.0,90,0.00,,,0.04,WUHU216HW,2013-01-04 12:38:00,
2013-01-04 06:43:00,33.4,30.7,30.40,North,0,0.0,0.0,90,0.02,,,0.04,WUHU216HW,2013-01-04 12:43:00,
2013-01-04 06:48:00,33.4,30.7,30.40,North,0,0.0,0.0,90,0.02,,,0.04,WUHU216HW,2013-01-04 12:48:00,
2013-01-04 08:15:00,33.4,30.7,30.43,North,0,0.0,0.0,90,0.04,,,0.06,WUHU216HW,2013-01-04 14:15:00,
2013-01-04 08:36:00,33.9,31.2,30.44,North,0,0.0,0.0,90,0.02,,,0.08,WUHU216HW,2013-01-04 14:36:00,
2013-01-04 09:06:00,34.5,31.8,30.43,North,0,0.0,0.0,90,0.02,,,0.08,WUHU216HW,2013-01-04 15:06:00,
2013-01-04 09:42:00,34.8,32.1,30.45,North,0,0.0,0.0,90,0.00,,,0.08,WUHU216HW,2013-01-04 15:42:00,
2013-01-04 10:28:00,36.1,33.4,30.45,North,0,0.0,0.0,90,0.02,,,0.10,WUHU216HW,2013-01-04 16:28:00,
2013-01-04 10:33:00,36.5,33.8,30.44,North,0,0.0,0.0,90,0.02,,,0.10,WUHU216HW,2013-01-04 16:33:00,
2013-01-04 10:38:00,36.5,33.8,30.44,North,0,0.0,0.0,90,0.02,,,0.10,WUHU216HW,2013-01-04 16:38:00,
2013-01-04 10:54:00,37.0,34.6,30.44,North,0,0.0,0.0,91,0.02,,,0.10,WUHU216HW,2013-01-04 16:54:00,
2013-01-04 10:59:00,37.0,34.6,30.44,North,0,0.0,0.0,91,0.02,,,0.10,WUHU216HW,2013-01-04 16:59:00,
2013-01-04 11:04:00,37.0,34.6,30.44,North,0,0.0,0.0,91,0.02,,,0.10,WUHU216HW,2013-01-04 17:04:00,
2013-01-04 11:09:00,37.2,34.7,30.44,North,0,0.0,0.0,91,0.02,,,0.10,WUHU216HW,2013-01-04 17:09:00,
2013-01-04 11:14:00,37.9,35.5,30.44,North,0,0.0,0.0,91,0.02,,,0.10,WUHU216HW,2013-01-04 17:14:00,
2013-01-04 11:19:00,37.7,35.3,30.43,North,0,0.0,0.0,91,0.02,,,0.10,WUHU216HW,2013-01-04 17:19:00,
2013-01-04 11:24:00,37.5,35.1,30.42,North,0,0.0,0.0,91,0.00,,,0.10,WUHU216HW,2013-01-04 17:24:00,
2013-01-04 11:29:00,37.5,35.1,30.42,North,0,0.0,0.0,91,0.00,,,0.10,WUHU216HW,2013-01-04 17:29:00,
2013-01-04 11:34:00,37.5,35.1,30.42,North,0,0.0,0.0,91,0.00,,,0.10,WUHU216HW,2013-01-04 17:34:00,
2013-01-04 11:39:00,37.7,35.3,30.41,North,0,0.0,0.0,91,0.00,,,0.10,WUHU216HW,2013-01-04 17:39:00,
2013-01-04 11:44:00,37.9,35.2,30.42,North,0,0.0,0.0,90,0.00,,,0.10,WUHU216HW,2013-01-04 17:44:00,
2013-01-04 11:49:00,38.1,35.4,30.41,North,0,0.0,0.0,90,0.00,,,0.10,WUHU216HW,2013-01-04 17:49:00,
2013-01-04 11:54:00,37.9,35.2,30.41,North,0,0.0,0.0,90,0.00,,,0.10,WUHU216HW,2013-01-04 17:54:00,
2013-01-04 11:59:00,37.9,35.2,30.41,North,0,0.0,0.0,90,0.00,,,0.10,WUHU216HW,2013-01-04 17:59:00,
2013-01-04 12:04:00,37.9,35.2,30.41,North,0,0.0,0.0,90,0.00,,,0.10,WUHU216HW,2013-01-04 18:04:00,
2013-01-04 13:16:00,38.3,35.3,30.36,North,0,0.0,0.0,89,0.04,,,0.14,WUHU216HW,2013-01-04 19:16:00,
2013-01-04 13:21:00,38.3,35.3,30.36,North,0,0.0,0.0,89,0.04,,,0.14,WUHU216HW,2013-01-04 19:21:00,
2013-01-04 13:53:00,39.2,36.2,30.35,North,0,0.0,0.0,89,0.06,,,0.14,WUHU216HW,2013-01-04 19:53:00,
2013-01-04 14:54:00,39.5,36.2,30.33,North,0,0.0,0.0,88,0.02,,,0.16,WUHU216HW,2013-01-04 20:54:00,
2013-01-04 15:16:00,39.3,35.8,30.33,North,0,0.0,0.0,87,0.02,,,0.16,WUHU216HW,2013-01-04 21:16:00,
2013-01-04 15:41:00,39.2,35.9,30.32,North,0,0.0,0.0,88,0.02,,,0.18,WUHU216HW,2013-01-04 21:41:00,
2013-01-04 15:46:00,39.0,35.7,30.32,North,0,0.0,0.0,88,0.02,,,0.18,WUHU216HW,2013-01-04 21:46:00,
2013-01-04 15:51:00,39.0,35.7,30.32,North,0,0.0,0.0,88,0.02,,,0.18,WUHU216HW,2013-01-04 21:51:00,
2013-01-04 15:56:00,39.2,35.9,30.32,North,0,0.0,0.0,88,0.02,,,0.18,WUHU216HW,2013-01-04 21:56:00,
2013-01-04 16:01:00,39.0,35.7,30.32,North,0,0.0,0.0,88,0.02,,,0.18,WUHU216HW,2013-01-04 22:01:00,
2013-01-04 16:08:00,39.0,35.7,30.32,North,0,0.0,0.0,88,0.02,,,0.18,WUHU216HW,2013-01-04 22:08:00,
2013-01-04 16:18:00,39.0,36.0,30.32,North,0,0.0,0.0,89,0.02,,,0.18,WUHU216HW,2013-01-04 22:18:00,
2013-01-04 16:23:00,39.0,36.0,30.32,North,0,0.0,0.0,89,0.02,,,0.18,WUHU216HW,2013-01-04 22:23:00,
2013-01-04 16:45:00,38.8,35.8,30.33,North,0,0.0,0.0,89,0.00,,,0.18,WUHU216HW,2013-01-04 22:45:00,
2013-01-04 17:27:00,39.0,36.0,30.33,North,0,0.0,0.0,89,0.02,,,0.18,WUHU216HW,2013-01-04 23:27:00,
2013-01-04 17:49:00,39.0,36.0,30.34,North,0,0.0,0.0,89,0.02,,,0.20,WUHU216HW,2013-01-04 23:49:00,
2013-01-04 17:54:00,39.0,36.0,30.34,North,0,0.0,0.0,89,0.02,,,0.20,WUHU216HW,2013-01-04 23:54:00,
2013-01-04 18:19:00,38.8,35.8,30.34,North,0,0.0,0.0,89,0.02,,,0.20,WUHU216HW,2013-01-05 00:19:00,
2013-01-04 20:47:00,38.4,35.7,30.35,North,0,0.0,0.0,90,0.00,,,0.20,WUHU216HW,2013-01-05 02:47:00,
2013-01-04 20:52:00,38.4,35.7,30.35,North,0,0.0,0.0,90,0.00,,,0.20,WUHU216HW,2013-01-05 02:52:00,
2013-01-04 22:51:00,38.3,35.6,30.35,North,0,0.0,0.0,90,0.00,,,0.22,WUHU216HW,2013-01-05 04:51:00,
2013-01-04 22:56:00,38.3,35.6,30.34,North,0,0.0,0.0,90,0.00,,,0.22,WUHU216HW,2013-01-05 04:56:00,
2013-01-04 23:01:00,38.3,35.6,30.34,North,0,0.0,0.0,90,0.00,,,0.22,WUHU216HW,2013-01-05 05:01:00,
2013-01-04 23:06:00,38.4,35.7,30.34,North,0,0.0,0.0,90,0.00,,,0.22,WUHU216HW,2013-01-05 05:06:00,
2013-01-04 23:11:00,38.4,35.7,30.34,North,0,0.0,0.0,90,0.00,,,0.22,WUHU216HW,2013-01-05 05:11:00,
2013-01-04 23:16:00,38.4,35.7,30.34,North,0,0.0,0.0,90,0.00,,,0.22,WUHU216HW,2013-01-05 05:16:00,
2013-01-04 23:21:00,38.4,35.7,30.33,North,0,0.0,0.0,90,0.00,,,0.22,WUHU216HW,2013-01-05 05:21:00,
2013-01-04 23:26:00,38.4,35.7,30.33,North,0,0.0,0.0,90,0.00,,,0.22,WUHU216HW,2013-01-05 05:26:00,
2013-01-04 23:31:00,38.4,35.7,30.32,North,0,0.0,0.0,90,0.00,,,0.22,WUHU216HW,2013-01-05 05:31:00,
2013-01-04 23:36:00,38.4,35.7,30.32,North,0,0.0,0.0,90,0.00,,,0.22,WUHU216HW,2013-01-05 05:36:00,
2013-01-04 23:42:00,38.6,35.9,30.32,North,0,0.0,0.0,90,0.00,,,0.22,WUHU216HW,2013-01-05 05:42:00,
2013-01-04 23:47:00,38.4,35.7,30.32,North,0,0.0,0.0,90,0.00,,,0.22,WUHU216HW,2013-01-05 05:47:00,
2013-01-04 23:52:00,38.4,35.7,30.32,North,0,0.0,0.0,90,0.00,,,0.22,WUHU216HW,2013-01-05 05:52:00,
2013-01-04 23:57:00,38.4,35.7,30.32,North,0,0.0,0.0,90,0.00,,,0.22,WUHU216HW,2013-01-05 05:57:00,